Главная страница
METAR-TAF:

METAR-TAF

Аэропорты :

Казань, Россия

широта: 55-47N, долгота: 049-12E, высота над уровнем моря: 125 м

Текущие метеонаблюдения

Эта сводка был подготовлена 11 минут назад, в 03:00 UTC
Ветер 8 Узел от северный
Температура 15°C
Влажность 82%
Давление 1019 hPa
Видимость 10 км и более
Отдельные облака на высоте 3300 фута

METAR: UWKD 170300Z 01004MPS 9999 SCT033 15/12 Q1019 R29/CLRD70 NOSIG RMK QFE753/1004

Время: 06:11 (03:11 UTC)

Прогноз

Эта сводка был подготовлена 1 час и 16 минут назад, в 01:55 UTC
Прогноз действительный с 17-го 03 UTC до 18-го 03 UTC
Ветер 6 Узел от северный
Видимость 10 км и более
Отдельные облака на высоте 3000 фута
временами
С 17-го 06 UTC до 17-го 15 UTC
Ветер 19 Узел от северный

TAF: UWKD 170155Z 1703/1803 36003MPS 9999 SCT030 TX22/1711Z TN11/1801Z TEMPO 1706/1715 01010MPS

Метеонаблюдения и прогнозы для более 4000 аэропортов (сводки METAR и TAF).

Имеющиеся станции представлены на карте желтыми и красными точками.

Чтобы увидеть название станции, наведите на нее мышь.

Затем щелкните, чтобы увидеть метеонаблюдения и метеопрогнозы.

Управление картой: чтобы увеличить масштаб, щелкните зеленые кнопки с черным крестиком; чтобы уменьшить масштаб, щелкните зеленую кнопку с тире; для просмотра соседних карт щелкайте зеленые стрелки.


METAR-TAF: